createdAt,value
2018-11-12T00:01:43.875Z,8.47
2018-11-12T00:04:16.585Z,8.77
2018-11-12T00:06:47.489Z,9.07
2018-11-12T00:09:21.095Z,8.97
2018-11-12T00:11:51.915Z,9.13
2018-11-12T00:14:24.217Z,9.37
2018-11-12T00:16:55.964Z,9.20
2018-11-12T00:19:29.654Z,9.73
2018-11-12T00:22:02.873Z,9.70
2018-11-12T00:24:32.450Z,9.70
2018-11-12T00:27:06.866Z,8.87
2018-11-12T00:29:37.678Z,9.43
2018-11-12T00:32:13.480Z,8.77
2018-11-12T00:34:48.118Z,9.57
2018-11-12T00:37:30.340Z,8.90
2018-11-12T00:40:00.055Z,8.43
2018-11-12T00:42:29.841Z,8.57
2018-11-12T00:45:01.047Z,8.70
2018-11-12T00:47:32.675Z,8.97
2018-11-12T00:50:05.405Z,7.77
2018-11-12T00:52:42.859Z,7.83
2018-11-12T00:55:15.063Z,7.63
2018-11-12T00:57:47.801Z,7.60
2018-11-12T01:00:22.073Z,7.67
2018-11-12T01:02:51.874Z,7.00
2018-11-12T01:05:23.212Z,6.93
2018-11-12T01:07:54.422Z,6.73
2018-11-12T01:10:26.492Z,6.80
2018-11-12T01:12:57.698Z,6.10
2018-11-12T01:15:30.386Z,6.50
2018-11-12T01:18:02.424Z,6.27
2018-11-12T01:20:36.196Z,6.73
2018-11-12T01:23:08.572Z,7.07
2018-11-12T01:25:41.594Z,6.53
2018-11-12T01:28:12.744Z,6.70
2018-11-12T01:30:44.872Z,6.63
2018-11-12T01:33:18.814Z,6.47
2018-11-12T01:35:49.761Z,6.00
2018-11-12T01:38:20.327Z,6.37
2018-11-12T01:40:50.351Z,6.10
2018-11-12T01:43:25.777Z,6.37
2018-11-12T01:45:57.957Z,5.60
2018-11-12T01:48:28.121Z,5.77
2018-11-12T01:50:58.366Z,5.67
2018-11-12T01:53:30.526Z,5.60
2018-11-12T01:56:01.430Z,5.70
2018-11-12T01:58:32.645Z,5.40
2018-11-12T02:01:04.636Z,5.73
2018-11-12T02:03:35.320Z,5.13
2018-11-12T02:06:10.025Z,5.60
2018-11-12T02:08:43.784Z,5.20
2018-11-12T02:11:13.547Z,5.73
2018-11-12T02:13:45.925Z,5.40
2018-11-12T02:16:16.280Z,5.13
2018-11-12T02:18:52.413Z,5.87
2018-11-12T02:21:30.347Z,5.30
2018-11-12T02:24:05.207Z,5.23
2018-11-12T02:26:38.041Z,5.50
2018-11-12T02:29:10.197Z,5.27
2018-11-12T02:31:39.661Z,4.97
2018-11-12T02:34:12.174Z,5.20
2018-11-12T02:36:43.154Z,4.80
2018-11-12T02:39:14.470Z,5.10
2018-11-12T02:41:47.709Z,5.30
2018-11-12T02:44:19.013Z,5.07
2018-11-12T02:46:50.357Z,4.90
2018-11-12T02:49:25.925Z,4.87
2018-11-12T02:51:58.461Z,4.77
2018-11-12T02:54:29.035Z,4.90
2018-11-12T02:56:59.176Z,5.30
2018-11-12T02:59:32.689Z,4.93
2018-11-12T03:02:03.135Z,5.00
2018-11-12T03:04:33.309Z,4.77
2018-11-12T03:07:04.709Z,4.90
2018-11-12T03:09:36.655Z,5.00
2018-11-12T03:12:07.867Z,5.30
2018-11-12T03:14:37.505Z,5.10
2018-11-12T03:17:09.120Z,5.37
2018-11-12T03:19:38.269Z,5.27
2018-11-12T03:22:08.959Z,5.60
2018-11-12T03:24:39.522Z,4.97
2018-11-12T03:27:10.786Z,5.10
2018-11-12T03:29:41.484Z,5.13
2018-11-12T03:32:14.807Z,5.50
2018-11-12T03:34:45.126Z,5.77
2018-11-12T03:37:21.518Z,5.20
2018-11-12T03:39:55.055Z,5.23
2018-11-12T03:42:28.315Z,5.67
2018-11-12T03:44:59.399Z,5.30
2018-11-12T03:47:31.414Z,5.37
2018-11-12T03:50:01.802Z,5.20
2018-11-12T03:52:32.872Z,5.23
2018-11-12T03:55:03.084Z,6.07
2018-11-12T03:57:33.101Z,5.97
2018-11-12T04:00:06.453Z,5.77
2018-11-12T04:02:39.277Z,5.90
2018-11-12T04:05:11.280Z,5.57
2018-11-12T04:07:44.504Z,5.30
2018-11-12T04:10:18.820Z,5.13
2018-11-12T04:12:48.682Z,5.40
2018-11-12T04:15:23.060Z,5.50
2018-11-12T04:17:55.591Z,5.30
2018-11-12T04:20:29.635Z,4.87
2018-11-12T04:23:09.082Z,4.90
2018-11-12T04:25:42.053Z,4.70
2018-11-12T04:28:14.867Z,5.17
2018-11-12T04:30:47.187Z,4.60
2018-11-12T04:33:19.411Z,4.73
2018-11-12T04:35:51.155Z,4.40
2018-11-12T04:38:22.485Z,4.90
2018-11-12T04:40:56.085Z,4.87
2018-11-12T04:43:28.318Z,5.83
2018-11-12T04:46:03.047Z,5.60
2018-11-12T04:48:35.120Z,5.43
2018-11-12T04:51:06.794Z,4.83
2018-11-12T04:53:37.489Z,5.00
2018-11-12T04:56:13.568Z,4.60
2018-11-12T04:58:47.352Z,4.67
2018-11-12T05:01:18.350Z,4.50
2018-11-12T05:03:50.186Z,4.83
2018-11-12T05:06:24.154Z,4.90
2018-11-12T05:08:56.211Z,4.90
2018-11-12T05:11:29.307Z,4.67
2018-11-12T05:13:59.959Z,4.60
2018-11-12T05:16:30.974Z,5.03
2018-11-12T05:19:04.516Z,4.50
2018-11-12T05:21:39.833Z,4.60
2018-11-12T05:24:14.541Z,5.23
2018-11-12T05:26:46.914Z,4.50
2018-11-12T05:29:19.053Z,4.37
2018-11-12T05:31:48.509Z,4.40
2018-11-12T05:34:19.696Z,5.40
2018-11-12T05:36:51.338Z,4.77
2018-11-12T05:39:27.740Z,4.57
2018-11-12T05:41:59.616Z,4.30
2018-11-12T05:44:31.150Z,5.23
2018-11-12T05:47:00.025Z,4.90
2018-11-12T05:49:30.349Z,4.50
2018-11-12T05:52:03.570Z,4.50
2018-11-12T05:54:32.799Z,4.40
2018-11-12T05:57:03.402Z,4.70
2018-11-12T05:59:33.867Z,4.33
2018-11-12T06:02:06.407Z,4.57
2018-11-12T06:04:37.160Z,4.80
2018-11-12T06:07:09.861Z,4.40
2018-11-12T06:09:41.567Z,4.37
2018-11-12T06:12:14.305Z,4.03
2018-11-12T06:14:44.180Z,4.90
2018-11-12T06:17:14.918Z,4.60
2018-11-12T06:19:48.036Z,4.57
2018-11-12T06:22:20.087Z,4.70
2018-11-12T06:24:53.370Z,4.57
2018-11-12T06:27:25.020Z,4.37
2018-11-12T06:29:59.031Z,4.50
2018-11-12T06:32:33.528Z,4.57
2018-11-12T06:35:05.989Z,4.87
2018-11-12T06:37:42.311Z,4.90
2018-11-12T06:40:21.866Z,5.10
2018-11-12T06:42:54.111Z,4.90
2018-11-12T06:45:27.834Z,5.13
2018-11-12T06:47:57.245Z,4.83
2018-11-12T06:50:28.356Z,5.53
2018-11-12T06:52:57.318Z,5.20
2018-11-12T06:55:26.103Z,6.03
2018-11-12T06:57:55.643Z,6.17
2018-11-12T07:00:27.464Z,6.60
2018-11-12T07:02:56.646Z,6.47
2018-11-12T07:05:26.068Z,6.60
2018-11-12T07:07:56.120Z,7.37
2018-11-12T07:10:26.140Z,6.73
2018-11-12T07:12:56.712Z,6.73
2018-11-12T07:15:26.956Z,6.30
2018-11-12T07:17:56.151Z,5.87
2018-11-12T07:20:29.457Z,6.20
2018-11-12T07:22:58.213Z,6.30
2018-11-12T07:25:29.816Z,5.90
2018-11-12T07:27:58.898Z,6.10
2018-11-12T07:30:29.556Z,5.90
2018-11-12T07:33:00.353Z,6.03
2018-11-12T07:35:29.243Z,6.00
2018-11-12T07:38:00.044Z,6.37
2018-11-12T07:40:28.876Z,6.70
2018-11-12T07:42:57.637Z,7.20
2018-11-12T07:45:27.902Z,7.47
2018-11-12T07:47:57.400Z,6.83
2018-11-12T07:50:27.375Z,7.07
2018-11-12T07:52:55.982Z,7.63
2018-11-12T07:55:25.816Z,7.40
2018-11-12T07:57:55.423Z,6.97
2018-11-12T08:00:28.229Z,7.00
2018-11-12T08:03:02.286Z,7.10
2018-11-12T08:05:31.012Z,7.23
2018-11-12T08:07:59.894Z,7.60
2018-11-12T08:10:28.596Z,7.50
2018-11-12T08:12:57.251Z,7.03
2018-11-12T08:15:26.756Z,7.47
2018-11-12T08:17:55.456Z,7.23
2018-11-12T08:20:25.089Z,8.07
2018-11-12T08:22:53.876Z,7.30
2018-11-12T08:25:22.521Z,9.00
2018-11-12T08:27:51.679Z,7.93
2018-11-12T08:30:22.417Z,7.53
2018-11-12T08:32:53.230Z,7.40
2018-11-12T08:35:21.858Z,7.70
2018-11-12T08:37:51.152Z,7.93
2018-11-12T08:40:20.998Z,7.43
2018-11-12T08:42:49.624Z,6.90
2018-11-12T08:45:18.374Z,7.50
2018-11-12T08:47:48.476Z,6.93
2018-11-12T08:50:19.603Z,6.87
2018-11-12T08:52:49.129Z,6.97
2018-11-12T08:55:19.237Z,6.90
2018-11-12T08:57:53.078Z,6.83
2018-11-12T09:00:23.594Z,7.27
2018-11-12T09:02:52.211Z,7.30
2018-11-12T09:05:22.151Z,6.83
2018-11-12T09:07:52.394Z,6.67
2018-11-12T09:10:23.026Z,7.17
2018-11-12T09:12:51.656Z,7.20
2018-11-12T09:15:20.316Z,7.73
2018-11-12T09:17:49.377Z,7.67
2018-11-12T09:20:22.272Z,7.07
2018-11-12T09:22:50.952Z,7.10
2018-11-12T09:25:20.916Z,6.83
2018-11-12T09:27:49.644Z,7.90
2018-11-12T09:30:21.009Z,7.57
2018-11-12T09:32:49.744Z,7.57
2018-11-12T09:35:21.067Z,8.07
2018-11-12T09:37:50.782Z,7.40
2018-11-12T09:40:23.936Z,8.10
2018-11-12T09:42:52.559Z,7.63
2018-11-12T09:45:21.280Z,7.63
2018-11-12T09:47:50.057Z,7.53
2018-11-12T09:50:19.932Z,7.87
2018-11-12T09:52:50.624Z,7.93
2018-11-12T09:55:20.020Z,7.93
2018-11-12T09:57:52.246Z,7.60
2018-11-12T10:00:21.913Z,7.90
2018-11-12T10:02:51.730Z,7.90
2018-11-12T10:05:21.329Z,7.97
2018-11-12T10:07:53.151Z,7.87
2018-11-12T10:11:01.343Z,8.13
2018-11-12T10:13:31.790Z,8.27
2018-11-12T10:16:01.000Z,8.57
2018-11-12T10:18:27.163Z,8.73
2018-11-12T10:20:56.138Z,9.13
2018-11-12T10:23:24.808Z,8.80
2018-11-12T10:25:53.653Z,9.57
2018-11-12T10:28:23.322Z,9.63
2018-11-12T10:30:52.051Z,9.53
2018-11-12T10:33:20.928Z,9.63
2018-11-12T10:35:50.065Z,9.80
2018-11-12T10:38:18.812Z,9.73
2018-11-12T10:40:47.592Z,9.97
2018-11-12T10:43:16.201Z,9.50
2018-11-12T10:45:44.955Z,10.03
2018-11-12T10:48:13.740Z,9.50
2018-11-12T10:50:42.473Z,9.37
2018-11-12T10:53:11.304Z,10.37
2018-11-12T10:55:40.049Z,9.33
2018-11-12T10:58:08.790Z,10.37
2018-11-12T11:00:42.827Z,9.23
2018-11-12T11:03:17.878Z,14.83
2018-11-12T11:05:48.134Z,11.93
2018-11-12T11:08:16.813Z,11.40
2018-11-12T11:10:45.510Z,11.77
2018-11-12T11:13:14.305Z,18.20
2018-11-12T11:15:43.305Z,16.97
2018-11-12T11:18:11.981Z,19.30
2018-11-12T11:20:40.618Z,36.80
2018-11-12T11:23:09.385Z,14.70
2018-11-12T11:25:38.093Z,14.40
2018-11-12T11:28:06.977Z,12.73
2018-11-12T11:30:35.673Z,23.00
2018-11-12T11:33:04.372Z,23.23
2018-11-12T11:35:33.057Z,14.87
2018-11-12T11:38:01.668Z,17.83
2018-11-12T11:40:30.344Z,28.30
2018-11-12T11:42:59.064Z,21.40
2018-11-12T11:45:27.803Z,20.73
2018-11-12T11:47:56.560Z,16.40
2018-11-12T11:50:26.632Z,22.13
2018-11-12T11:52:55.157Z,16.13
2018-11-12T11:55:24.907Z,18.17
2018-11-12T11:57:54.137Z,16.87
2018-11-12T12:00:25.985Z,14.77
2018-11-12T12:02:55.801Z,14.83
2018-11-12T12:05:24.988Z,14.07
2018-11-12T12:07:54.567Z,20.93
2018-11-12T12:10:23.885Z,15.73
2018-11-12T12:12:53.385Z,17.30
2018-11-12T12:15:23.220Z,19.93
2018-11-12T12:17:51.933Z,19.10
2018-11-12T12:20:21.706Z,19.73
2018-11-12T12:22:50.476Z,37.17
2018-11-12T12:25:19.653Z,17.37
2018-11-12T12:27:48.807Z,12.83
2018-11-12T12:30:19.972Z,13.70
2018-11-12T12:32:49.907Z,13.40
2018-11-12T12:35:18.587Z,14.20
2018-11-12T12:37:47.767Z,13.50
2018-11-12T12:40:17.942Z,13.97
2018-11-12T12:42:46.764Z,13.77
2018-11-12T12:45:17.044Z,13.87
2018-11-12T12:47:46.123Z,15.47
2018-11-12T12:50:15.751Z,14.50
2018-11-12T12:52:44.480Z,13.27
2018-11-12T12:55:14.195Z,13.53
2018-11-12T12:57:43.998Z,13.57
2018-11-12T13:00:15.756Z,12.90
2018-11-12T13:02:44.384Z,14.27
2018-11-12T13:05:13.094Z,13.40
2018-11-12T13:07:42.082Z,13.20
2018-11-12T13:10:12.457Z,13.13
2018-11-12T13:12:41.198Z,13.77
2018-11-12T13:15:11.478Z,15.83
2018-11-12T13:17:40.184Z,15.43
2018-11-12T13:20:10.371Z,13.13
2018-11-12T13:22:39.123Z,16.03
2018-11-12T13:25:08.391Z,17.73
2018-11-12T13:27:37.239Z,17.33
2018-11-12T13:30:10.296Z,17.50
2018-11-12T13:32:39.804Z,13.30
2018-11-12T13:35:10.495Z,12.87
2018-11-12T13:37:39.202Z,11.53
2018-11-12T13:40:11.140Z,13.67
2018-11-12T13:42:40.172Z,13.57
2018-11-12T13:45:09.351Z,13.47
2018-11-12T13:47:38.557Z,13.40
2018-11-12T13:50:10.343Z,27.90
2018-11-12T13:52:39.061Z,13.10
2018-11-12T13:55:09.326Z,12.47
2018-11-12T13:57:38.071Z,8.83
2018-11-12T14:00:10.292Z,8.43
2018-11-12T14:02:39.155Z,8.10
2018-11-12T14:05:09.690Z,8.30
2018-11-12T14:07:38.604Z,8.93
2018-11-12T14:10:08.847Z,9.13
2018-11-12T14:12:38.032Z,9.17
2018-11-12T14:15:09.342Z,9.23
2018-11-12T14:17:38.192Z,10.10
2018-11-12T14:20:07.225Z,9.53
2018-11-12T14:22:36.271Z,9.53
2018-11-12T14:25:06.082Z,9.50
2018-11-12T14:27:35.019Z,9.37
2018-11-12T14:30:03.758Z,9.87
2018-11-12T14:32:32.896Z,9.63
2018-11-12T14:35:01.644Z,9.07
2018-11-12T14:37:30.657Z,12.17
2018-11-12T14:39:59.363Z,10.93
2018-11-12T14:42:28.044Z,10.30
2018-11-12T14:44:56.765Z,10.67
2018-11-12T14:47:25.487Z,12.60
2018-11-12T14:49:54.175Z,12.30
2018-11-12T14:52:22.845Z,10.20
2018-11-12T14:54:51.502Z,9.90
2018-11-12T14:57:20.173Z,9.80
2018-11-12T14:59:48.855Z,10.00
2018-11-12T15:02:17.483Z,9.43
2018-11-12T15:04:46.135Z,9.13
2018-11-12T15:07:14.756Z,9.43
2018-11-12T15:09:43.367Z,11.53
2018-11-12T15:12:12.004Z,10.40
2018-11-12T15:14:40.764Z,14.70
2018-11-12T15:17:09.394Z,54.00
2018-11-12T15:19:38.084Z,13.83
2018-11-12T15:22:06.732Z,13.20
2018-11-12T15:24:35.475Z,22.37
2018-11-12T15:27:04.952Z,12.83
2018-11-12T15:29:33.737Z,15.37
2018-11-12T15:32:02.291Z,13.83
2018-11-12T15:34:30.965Z,14.90
2018-11-12T15:36:59.835Z,22.97
2018-11-12T15:39:28.319Z,34.73
2018-11-12T15:41:57.736Z,31.30
2018-11-12T15:44:26.277Z,16.03
2018-11-12T15:46:55.378Z,14.40
2018-11-12T15:49:24.039Z,14.47
2018-11-12T15:51:53.831Z,14.73
2018-11-12T15:54:22.406Z,8.60
2018-11-12T15:56:51.049Z,9.73
2018-11-12T15:59:19.862Z,11.27
2018-11-12T16:01:48.520Z,9.23
2018-11-12T16:04:17.708Z,9.57
2018-11-12T16:06:46.431Z,10.50
2018-11-12T16:09:16.681Z,8.83
2018-11-12T16:11:45.743Z,10.23
2018-11-12T16:14:14.586Z,9.47
2018-11-12T16:16:43.266Z,10.00
2018-11-12T16:19:12.016Z,11.23
2018-11-12T16:21:40.649Z,11.00
2018-11-12T16:24:09.456Z,11.70
2018-11-12T16:26:38.286Z,11.40
2018-11-12T16:29:07.211Z,11.70
2018-11-12T16:31:36.063Z,12.83
2018-11-12T16:34:04.862Z,12.27
2018-11-12T16:36:33.508Z,12.63
2018-11-12T16:39:02.143Z,12.73
2018-11-12T16:41:30.853Z,10.97
2018-11-12T16:43:59.604Z,12.03
2018-11-12T16:46:28.195Z,11.07
2018-11-12T16:48:56.896Z,11.70
2018-11-12T16:51:25.546Z,11.17
2018-11-12T16:53:54.252Z,10.37
2018-11-12T16:56:22.953Z,10.27
2018-11-12T16:58:51.633Z,10.80
2018-11-12T17:01:20.298Z,10.83
2018-11-12T17:03:48.925Z,11.00
2018-11-12T17:06:17.553Z,13.47
2018-11-12T17:08:46.155Z,25.50
2018-11-12T17:11:15.790Z,23.00
2018-11-12T17:13:44.395Z,15.23
2018-11-12T17:16:13.136Z,17.00
2018-11-12T17:18:41.757Z,13.50
2018-11-12T17:21:10.393Z,13.13
2018-11-12T17:23:39.150Z,12.73
2018-11-12T17:26:07.734Z,14.23
2018-11-12T17:28:36.289Z,15.53
2018-11-12T17:31:05.058Z,12.57
2018-11-12T17:33:34.028Z,14.57
2018-11-12T17:36:02.752Z,22.50
2018-11-12T17:38:31.568Z,13.73
2018-11-12T17:41:00.223Z,13.47
2018-11-12T17:43:29.579Z,14.17
2018-11-12T17:45:58.233Z,14.90
2018-11-12T17:48:26.845Z,14.03
2018-11-12T17:50:55.463Z,14.57
2018-11-12T17:53:24.099Z,13.40
2018-11-12T17:55:52.747Z,12.70
2018-11-12T17:58:21.481Z,13.03
2018-11-12T18:00:50.139Z,14.57
2018-11-12T18:03:19.397Z,16.60
2018-11-12T18:05:48.107Z,16.40
2018-11-12T18:08:16.891Z,17.00
2018-11-12T18:10:45.511Z,17.97
2018-11-12T18:13:14.203Z,17.73
2018-11-12T18:15:42.880Z,16.73
2018-11-12T18:18:11.455Z,18.17
2018-11-12T18:20:40.146Z,18.17
2018-11-12T18:23:08.803Z,16.87
2018-11-12T18:25:37.515Z,17.67
2018-11-12T18:28:06.210Z,19.00
2018-11-12T18:30:35.640Z,16.27
2018-11-12T18:33:05.002Z,19.20
2018-11-12T18:35:33.647Z,19.23
2018-11-12T18:38:02.414Z,20.37
2018-11-12T18:40:30.963Z,22.87
2018-11-12T18:42:59.604Z,24.67
2018-11-12T18:45:28.689Z,21.60
2018-11-12T18:47:58.148Z,24.60
2018-11-12T18:50:28.071Z,22.03
2018-11-12T18:52:56.707Z,20.67
2018-11-12T18:55:25.525Z,24.07
2018-11-12T18:57:54.615Z,24.93
2018-11-12T19:00:24.370Z,27.13
2018-11-12T19:02:53.158Z,28.73
2018-11-12T19:05:23.451Z,27.70
2018-11-12T19:07:53.053Z,27.67
2018-11-12T19:10:23.932Z,28.50
2018-11-12T19:12:52.850Z,31.83
2018-11-12T19:15:24.062Z,30.73
2018-11-12T19:17:56.425Z,32.40
2018-11-12T19:20:25.785Z,30.27
2018-11-12T19:22:54.760Z,28.00
2018-11-12T19:25:23.621Z,24.60
2018-11-12T19:27:52.218Z,26.67
2018-11-12T19:30:23.180Z,23.77
2018-11-12T19:32:52.894Z,24.73
2018-11-12T19:35:23.184Z,24.97
2018-11-12T19:37:51.906Z,29.03
2018-11-12T19:40:21.846Z,28.17
2018-11-12T19:42:51.531Z,28.07
2018-11-12T19:45:20.307Z,27.07
2018-11-12T19:47:50.039Z,27.53
2018-11-12T19:50:19.888Z,30.23
2018-11-12T19:52:49.714Z,27.00
2018-11-12T19:55:18.424Z,25.43
2018-11-12T19:57:47.874Z,25.07
2018-11-12T20:00:19.406Z,25.07
2018-11-12T20:02:49.348Z,25.30
2018-11-12T20:05:18.155Z,26.20
2018-11-12T20:07:46.871Z,23.40
2018-11-12T20:10:17.012Z,23.80
2018-11-12T20:12:45.753Z,24.03
2018-11-12T20:15:16.459Z,23.03
2018-11-12T20:17:46.172Z,22.13
2018-11-12T20:20:19.333Z,23.20
2018-11-12T20:22:48.420Z,23.90
2018-11-12T20:25:17.958Z,22.37
2018-11-12T20:27:47.152Z,22.60
2018-11-12T20:30:18.836Z,23.57
2018-11-12T20:32:47.710Z,21.87
2018-11-12T20:35:16.540Z,22.73
2018-11-12T20:37:45.249Z,22.80
2018-11-12T20:40:14.819Z,23.60
2018-11-12T20:42:44.707Z,23.43
2018-11-12T20:45:14.687Z,24.83
2018-11-12T20:47:44.452Z,24.07
2018-11-12T20:50:13.929Z,22.83
2018-11-12T20:52:43.112Z,23.53
2018-11-12T20:55:12.770Z,24.13
2018-11-12T20:57:41.920Z,25.40
2018-11-12T21:00:13.935Z,28.13
2018-11-12T21:02:50.380Z,25.43
2018-11-12T21:05:21.051Z,24.77
2018-11-12T21:07:50.556Z,27.83
2018-11-12T21:10:19.883Z,27.93
2018-11-12T21:12:49.390Z,25.33
2018-11-12T21:15:19.056Z,26.40
2018-11-12T21:17:47.740Z,28.03
2018-11-12T21:20:18.939Z,28.93
2018-11-12T21:22:47.583Z,27.70
2018-11-12T21:25:17.621Z,31.30
2018-11-12T21:27:46.255Z,30.37
2018-11-12T21:30:17.920Z,33.43
2018-11-12T21:32:46.939Z,33.37
2018-11-12T21:35:15.602Z,32.07
2018-11-12T21:37:44.487Z,32.17
2018-11-12T21:40:16.706Z,34.00
2018-11-12T21:42:45.615Z,33.57
2018-11-12T21:45:15.667Z,33.87
2018-11-12T21:47:44.658Z,33.27
2018-11-12T21:50:14.921Z,32.40
2018-11-12T21:52:43.712Z,32.73
2018-11-12T21:55:12.981Z,30.10
2018-11-12T21:57:42.136Z,31.13
2018-11-12T22:00:23.350Z,31.00
2018-11-12T22:02:56.444Z,29.67
2018-11-12T22:05:25.747Z,30.60
2018-11-12T22:07:54.399Z,31.70
2018-11-12T22:10:23.114Z,35.37
2018-11-12T22:12:52.468Z,33.17
2018-11-12T22:15:21.158Z,34.33
2018-11-12T22:17:49.819Z,30.80
2018-11-12T22:20:19.822Z,30.03
2018-11-12T22:22:48.494Z,29.33
2018-11-12T22:25:18.338Z,30.77
2018-11-12T22:27:47.650Z,35.17
2018-11-12T22:30:17.752Z,32.90
2018-11-12T22:32:48.182Z,32.00
2018-11-12T22:35:16.853Z,30.90
2018-11-12T22:37:45.876Z,29.97
2018-11-12T22:40:15.437Z,29.57
2018-11-12T22:42:45.187Z,29.73
2018-11-12T22:45:15.259Z,28.83
2018-11-12T22:47:44.823Z,28.83
2018-11-12T22:50:13.407Z,28.27
2018-11-12T22:52:42.607Z,27.40
2018-11-12T22:55:12.522Z,27.67
2018-11-12T22:57:41.131Z,26.57
2018-11-12T23:00:16.961Z,27.13
2018-11-12T23:02:45.843Z,26.73
2018-11-12T23:05:14.920Z,26.63
2018-11-12T23:07:44.075Z,26.53
2018-11-12T23:10:12.858Z,25.90
2018-11-12T23:12:41.579Z,26.53
2018-11-12T23:15:11.444Z,24.33
2018-11-12T23:17:40.338Z,25.10
2018-11-12T23:20:14.778Z,25.60
2018-11-12T23:22:44.056Z,24.53
2018-11-12T23:25:12.871Z,24.07
2018-11-12T23:27:42.267Z,24.20
2018-11-12T23:30:12.605Z,23.57
2018-11-12T23:32:41.258Z,24.27
2018-11-12T23:35:13.888Z,23.03
2018-11-12T23:37:43.155Z,23.53
2018-11-12T23:40:12.445Z,22.00
2018-11-12T23:42:43.233Z,22.93
2018-11-12T23:45:12.642Z,23.03
2018-11-12T23:47:41.306Z,22.73
2018-11-12T23:50:14.238Z,22.83
2018-11-12T23:52:43.400Z,23.07
2018-11-12T23:55:12.392Z,22.17
2018-11-12T23:57:41.010Z,21.93
